Accueil
METAR-TAF:

METAR-TAF

Aéroports :

Reus, Espagne

Aéroport de Reus

latitude: 41-09N, longitude: 001-10E, altitude: 71 m

Observation

Le bulletin a été fait il y a 30 minutes, à 04:30 UTC
Vent calme
Température 6°C
Humidité 75%
Pression 1022 hPa
Visibilité 10 km ou plus

METAR: LERS 180430Z AUTO 00000KT 9999 NCD 06/02 Q1022

Heure: 06:00 (05:00 UTC)

Prévision

Le bulletin a été fait il y a 3 heures et 0 minutes, à 02:00 UTC
Prévision valable du 18 à 03 UTC au 19 à 03 UTC
Vent 8 kt de ouest
Visibilité 10 km ou plus
Quelques nuages à une hauteur de 2000 ft
Temporairement
du 18 à 03 UTC au 18 à 15 UTC
Vent 12 kt de ouest avec des rafales jusqu'à 24 kt
Probabilité 30% :
Temporairement
du 18 à 15 UTC au 18 à 19 UTC
Vent 6 kt de est/sud-est

TAF: LERS 180200Z 1803/1903 28008KT 9999 FEW020 TX16/1813Z TN05/1806Z TEMPO 1803/1815 28012G24KT PROB30 TEMPO 1815/1819 12006KT

Observations et prévisions météorologiques de plus de 4000 aéroports (messages METAR et TAF).

Les stations disponibles sont représentées par des disques jaunes et rouges sur la carte.

Passer la souris dessus pour voir le nom de la station.

Cliquer dessus pour voir les observations et prévisions météorologiques.

Pour changer de carte: cliquez sur les boutons verts avec une croix noire pour zoomer, sur le bouton vert avec un tiret pour effectuer un zoom arrière, ou sur les flèches vertes pour les cartes adjacentes.


METAR-TAF: